»·PEaware :: N232VB KPOC-P20

N232VB :: KPOC-P20

FLIGHT INFORMATION

Flight Status: Arrived
Operator: Privately registered:
United States
More flights under this callsign
Pilot: Anonymous 41672 (41672)
Aircraft: BEECH AIRCRAFT SUPER KING AIR 350
(B350)
More flights by this aircraft type
Origin: KPOC Brackett
United States
Destination: P20 Avi Suquilla
United States
More flights between these airports :: More routes between these airports
Route: PRADO V16 PDZ V186 NIKKL V64 TRM
File this flight plan on PilotEdge
Remarks:
Altitude:
(Current/Filed)
25,000ft
Speed:
(Current/Filed)
225kts
Departed: 19-Oct-23 08:57 PM
Arrived: 19-Oct-23 09:47 PM
Distance/Time
Traveled:
174nm/0:50
Distance/Time
To Go:
Arrived

Flight Plot

Page will automatically refresh every two minutes.

Flight plan parsing failed; only flown route is shown


Map Options




Map Legend


Flown Route
Filed Route
Departure Airport
Arrival Airport
Navaid (VOR, NDB)
Fix

Horizontal Profiles

Position Reports

Time Latitude Longitude Heading Altitude Ground
Speed
19-Oct-23 20:36 34.090125 -117.782625 177 996ft 0kts
19-Oct-23 20:37 34.090125 -117.782625 177 996ft 0kts
19-Oct-23 20:38 34.090125 -117.782625 177 996ft 0kts
19-Oct-23 20:39 34.090125 -117.782625 177 996ft 0kts
19-Oct-23 20:40 34.090125 -117.782625 177 996ft 0kts
19-Oct-23 20:41 34.090125 -117.782625 177 996ft 0kts
19-Oct-23 20:42 34.090125 -117.782625 177 996ft 0kts
19-Oct-23 20:43 34.090125 -117.782625 177 996ft 0kts
19-Oct-23 20:44 34.090125 -117.782625 177 996ft 0kts
19-Oct-23 20:45 34.090125 -117.782625 177 996ft 0kts
19-Oct-23 20:46 34.090125 -117.782625 177 996ft 0kts
19-Oct-23 20:47 34.090125 -117.782625 177 996ft 0kts
19-Oct-23 20:48 34.090125 -117.782625 177 996ft 0kts
19-Oct-23 20:49 34.090125 -117.782625 177 996ft 0kts
19-Oct-23 20:50 34.090125 -117.782625 177 996ft 0kts
19-Oct-23 20:51 34.090125 -117.782625 177 996ft 0kts
19-Oct-23 20:52 34.090450 -117.778597 93 1003ft 32kts
19-Oct-23 20:53 34.090570 -117.774660 1 1014ft 0kts
19-Oct-23 20:54 34.090570 -117.774660 1 1014ft 0kts
19-Oct-23 20:55 34.090985 -117.774876 272 1014ft 0kts
19-Oct-23 20:56 34.091081 -117.799107 254 1595ft 126kts
19-Oct-23 20:57 34.051471 -117.797545 143 2831ft 189kts
19-Oct-23 20:58 34.004669 -117.785519 179 5108ft 176kts
19-Oct-23 20:59 33.968771 -117.757097 103 7158ft 173kts
19-Oct-23 21:00 33.956596 -117.700677 105 9247ft 174kts
19-Oct-23 21:01 33.944700 -117.647479 104 11571ft 152kts
19-Oct-23 21:02 33.933356 -117.596951 104 13479ft 158kts
19-Oct-23 21:03 33.921739 -117.545369 105 15246ft 160kts
19-Oct-23 21:04 33.891210 -117.507237 141 17099ft 166kts
19-Oct-23 21:05 33.852955 -117.475085 135 18819ft 168kts
19-Oct-23 21:06 33.842152 -117.422596 103 20517ft 154kts
19-Oct-23 21:07 33.833923 -117.372370 103 22089ft 154kts
19-Oct-23 21:08 33.825573 -117.321747 104 23512ft 155kts
19-Oct-23 21:09 33.817060 -117.270249 103 24701ft 157kts
19-Oct-23 21:10 33.807597 -117.213557 103 25065ft 199kts
19-Oct-23 21:11 33.795622 -117.141635 103 25071ft 235kts
19-Oct-23 21:12 33.782184 -117.061136 103 25075ft 253kts
19-Oct-23 21:13 33.768002 -116.976543 103 25071ft 263kts
19-Oct-23 21:14 33.753362 -116.889570 103 25072ft 267kts
19-Oct-23 21:15 33.741545 -116.819653 103 25070ft 270kts
19-Oct-23 21:16 33.726535 -116.731209 103 25016ft 271kts
19-Oct-23 21:17 33.711381 -116.642342 104 24996ft 273kts
19-Oct-23 21:18 33.695960 -116.552370 104 24989ft 276kts
19-Oct-23 21:19 33.680437 -116.462119 104 24986ft 276kts
19-Oct-23 21:20 33.664787 -116.371588 104 24943ft 276kts
19-Oct-23 21:21 33.649115 -116.281341 104 24912ft 276kts
19-Oct-23 21:22 33.633367 -116.191083 104 24904ft 276kts
19-Oct-23 21:23 33.644988 -116.100226 75 24903ft 287kts
19-Oct-23 21:24 33.670798 -116.009531 76 24915ft 287kts
19-Oct-23 21:25 33.696530 -115.918649 77 24929ft 288kts
19-Oct-23 21:26 33.722179 -115.827794 77 24952ft 289kts
19-Oct-23 21:27 33.747716 -115.735764 76 24965ft 290kts
19-Oct-23 21:28 33.773717 -115.644139 77 24965ft 290kts
19-Oct-23 21:29 33.799397 -115.552333 77 24943ft 284kts
19-Oct-23 21:30 33.824654 -115.461732 77 23676ft 286kts
19-Oct-23 21:31 33.849976 -115.370551 77 21830ft 286kts
19-Oct-23 21:32 33.875035 -115.280004 77 20140ft 284kts
19-Oct-23 21:33 33.899837 -115.190014 77 18549ft 284kts
19-Oct-23 21:34 33.924583 -115.100018 76 16868ft 281kts
19-Oct-23 21:35 33.949013 -115.010983 76 15221ft 280kts
19-Oct-23 21:36 33.973281 -114.922252 75 13834ft 276kts
19-Oct-23 21:37 33.996542 -114.836823 75 12035ft 262kts
19-Oct-23 21:38 34.018634 -114.755412 75 10462ft 249kts
19-Oct-23 21:39 34.039755 -114.677450 75 8908ft 241kts
19-Oct-23 21:40 34.060321 -114.601307 74 7453ft 237kts
19-Oct-23 21:41 34.080440 -114.526635 74 6130ft 230kts
19-Oct-23 21:42 34.099158 -114.456937 73 4903ft 203kts
19-Oct-23 21:43 34.115835 -114.394769 72 3742ft 189kts
19-Oct-23 21:44 34.114072 -114.333484 106 2584ft 184kts
19-Oct-23 21:45 34.119057 -114.287687 42 1310ft 135kts
19-Oct-23 21:46 34.147621 -114.269158 25 464ft 30kts
19-Oct-23 21:47 34.151645 -114.268876 292 462ft 13kts
19-Oct-23 21:48 34.153042 -114.271536 97 464ft 0kts
19-Oct-23 21:49 34.153042 -114.271536 97 464ft 0kts

Navigation Log

Ident Type
Flight plan parsing failed, navigation log unavailable